Time;durP1;ratioP1;P1;durP2;ratioP2;P2;SDS_P1;SDS_P2;PMS_P1;PMS_P2;Temp;Humidity;BMP_temperature;BMP_pressure;BME280_temperature;BME280_humidity;BME280_pressure;Samples;Min_cycle;Max_cycle;Signal;HPM_P1;HPM_P2
2022/03/22 00:00:49;;;;;;;18.37;8.60;;;;;;;3.48;54.39;101920.13;5012951;28;20026;-80
2022/03/22 00:03:15;;;;;;;19.63;9.87;;;;;;;3.53;55.42;101908.66;5012958;28;20497;-75
2022/03/22 00:05:42;;;;;;;21.87;9.30;;;;;;;3.65;54.15;101914.84;5013096;28;20104;-80
2022/03/22 00:08:10;;;;;;;14.97;8.77;;;;;;;3.70;53.92;101911.03;5011779;28;20056;-79
2022/03/22 00:10:36;;;;;;;14.10;8.63;;;;;;;3.71;54.35;101904.25;5013835;28;20045;-74
2022/03/22 00:13:04;;;;;;;17.40;9.20;;;;;;;3.72;55.69;101912.06;5020950;28;20472;-74
2022/03/22 00:15:30;;;;;;;15.37;9.60;;;;;;;3.68;57.76;101899.78;5014252;28;20465;-76
2022/03/22 00:17:55;;;;;;;17.67;9.10;;;;;;;3.68;59.58;101909.13;5024786;28;20115;-77
2022/03/22 00:20:21;;;;;;;15.47;8.70;;;;;;;2.87;61.62;101781.19;5031766;28;20034;-77
2022/03/22 00:22:48;;;;;;;17.47;8.30;;;;;;;3.49;61.97;101904.03;5029938;28;20061;-78
2022/03/22 00:25:16;;;;;;;14.37;8.57;;;;;;;2.97;62.94;101836.50;5031456;28;20033;-79
2022/03/22 00:27:55;;;;;;;14.90;9.30;;;;;;;3.15;63.22;101896.78;5028483;28;20069;-79
2022/03/22 00:30:22;;;;;;;13.73;8.82;;;;;;;3.12;64.11;101896.53;5031398;28;20499;-77
2022/03/22 00:32:53;;;;;;;15.90;7.93;;;;;;;3.09;64.27;101888.63;5030413;28;20053;-76
2022/03/22 00:35:24;;;;;;;15.33;7.63;;;;;;;2.74;66.69;101877.00;5031418;28;20152;-77
2022/03/22 00:37:52;;;;;;;12.63;7.73;;;;;;;2.70;67.62;101891.88;5030134;28;20090;-77
2022/03/22 00:40:17;;;;;;;16.47;8.07;;;;;;;2.75;67.87;101895.75;5026308;28;20057;-74
2022/03/22 00:42:48;;;;;;;18.87;8.10;;;;;;;2.85;67.20;101866.88;5014204;28;20512;-83
2022/03/22 00:45:17;;;;;;;18.93;9.00;;;;;;;2.94;66.40;101842.22;5011931;28;20030;-83
2022/03/22 00:47:44;;;;;;;14.80;8.07;;;;;;;3.40;66.26;101886.22;5010411;28;20091;-82
2022/03/22 00:50:10;;;;;;;14.53;8.43;;;;;;;3.38;65.69;101857.13;5011488;28;20041;-83
2022/03/22 00:52:36;;;;;;;15.97;9.30;;;;;;;3.46;64.73;101850.16;5010211;28;20034;-83
2022/03/22 00:55:05;;;;;;;14.23;7.57;;;;;;;3.54;62.97;101861.94;5010824;28;20046;-82
2022/03/22 00:57:33;;;;;;;15.83;8.30;;;;;;;3.69;60.43;101868.38;5010197;28;20544;-82
2022/03/22 01:00:10;;;;;;;16.03;8.03;;;;;;;3.51;62.31;101849.78;5010188;28;20767;-82
2022/03/22 01:02:41;;;;;;;13.50;7.90;;;;;;;3.22;64.13;101862.53;5011143;28;20030;-78
2022/03/22 01:05:13;;;;;;;14.73;7.83;;;;;;;3.16;64.19;101862.00;5023884;28;20033;-79
2022/03/22 01:07:40;;;;;;;19.90;9.40;;;;;;;3.03;62.83;101848.13;5009877;28;20120;-80
2022/03/22 01:10:08;;;;;;;13.00;8.20;;;;;;;3.21;61.91;101869.28;5011268;28;20026;-77
2022/03/22 01:12:35;;;;;;;12.73;7.70;;;;;;;3.22;61.47;101858.31;5010952;28;20073;-77
2022/03/22 01:15:02;;;;;;;17.10;8.90;;;;;;;3.36;60.32;101856.09;5011782;28;20069;-77
2022/03/22 01:17:31;;;;;;;15.80;9.13;;;;;;;3.33;57.63;101831.19;5011621;28;20479;-80
2022/03/22 01:19:57;;;;;;;24.53;10.67;;;;;;;3.40;57.18;101824.97;5011701;28;20025;-79
2022/03/22 01:22:23;;;;;;;22.43;10.87;;;;;;;3.32;56.60;101828.50;5010554;28;20040;-77
2022/03/22 01:24:52;;;;;;;17.33;9.60;;;;;;;3.42;56.47;101838.75;5011600;28;20447;-78
2022/03/22 01:27:20;;;;;;;16.30;8.50;;;;;;;3.31;55.55;101819.94;5011329;28;20026;-80
2022/03/22 01:29:45;;;;;;;13.97;8.50;;;;;;;2.62;56.18;101694.88;5009343;28;20029;-81
2022/03/22 01:32:11;;;;;;;16.47;7.90;;;;;;;3.48;56.29;101818.88;5010500;28;20461;-81
2022/03/22 01:34:36;;;;;;;13.87;8.80;;;;;;;3.37;55.71;101799.19;5010724;28;20032;-80
2022/03/22 01:37:02;;;;;;;14.93;9.93;;;;;;;3.51;55.11;101818.25;5009570;28;20461;-81
2022/03/22 01:39:28;;;;;;;16.13;9.47;;;;;;;3.46;57.10;101822.94;5010909;28;20022;-77
2022/03/22 01:41:53;;;;;;;16.53;9.40;;;;;;;3.43;56.50;101806.47;5025676;28;20047;-77
2022/03/22 01:44:19;;;;;;;15.57;9.23;;;;;;;3.33;57.63;101815.88;5010694;28;20025;-78
2022/03/22 01:46:45;;;;;;;15.50;9.10;;;;;;;3.28;57.50;101791.63;5010212;28;20076;-79
2022/03/22 01:49:11;;;;;;;16.13;8.17;;;;;;;3.49;57.17;101819.75;5010938;28;20024;-79
2022/03/22 01:51:37;;;;;;;15.70;7.97;;;;;;;3.59;57.06;101822.38;5009206;28;20112;-82
2022/03/22 01:54:04;;;;;;;15.27;7.90;;;;;;;3.28;56.77;101773.75;5026962;28;20659;-79
2022/03/22 01:56:29;;;;;;;19.00;7.87;;;;;;;3.26;57.93;101770.16;5027197;28;20049;-83
2022/03/22 01:58:55;;;;;;;16.17;8.37;;;;;;;3.36;57.94;101787.19;5010680;28;20511;-79
2022/03/22 02:06:53;;;;;;;13.73;6.97;;;;;;;3.16;59.11;101800.75;5027288;28;20037;-83
2022/03/22 02:09:18;;;;;;;14.97;7.83;;;;;;;2.94;59.43;101786.09;5027225;28;20033;-79
2022/03/22 02:11:44;;;;;;;12.60;6.97;;;;;;;2.87;59.34;101754.03;5010810;28;20049;-78
2022/03/22 02:14:10;;;;;;;15.00;7.73;;;;;;;3.08;58.63;101770.34;5010859;28;20025;-78
2022/03/22 02:16:35;;;;;;;13.73;8.33;;;;;;;3.21;58.00;101781.63;5027478;28;20091;-78
2022/03/22 02:19:01;;;;;;;13.83;7.77;;;;;;;3.26;57.55;101780.38;5027850;28;20049;-83
2022/03/22 02:21:31;;;;;;;16.57;8.10;;;;;;;3.18;57.85;101761.84;5011470;28;20033;-81
2022/03/22 02:23:57;;;;;;;;;;;;;;;3.31;57.66;101786.75;5028154;28;20053;-80
2022/03/22 02:26:24;;;;;;;16.10;7.83;;;;;;;3.21;58.61;101779.06;5011331;28;19913;-79
2022/03/22 02:28:53;;;;;;;15.27;8.17;;;;;;;3.12;59.94;101781.72;5027726;28;20080;-79
2022/03/22 02:31:30;;;;;;;18.13;7.93;;;;;;;3.10;60.40;101783.22;5019385;28;20120;-81
2022/03/22 02:33:55;;;;;;;12.33;7.83;;;;;;;2.94;61.10;101757.13;5008014;28;20044;-77
2022/03/22 02:36:21;;;;;;;14.73;8.10;;;;;;;2.94;62.09;101778.44;5007896;28;20033;-81
2022/03/22 02:38:47;;;;;;;15.57;8.30;;;;;;;2.98;62.48;101772.84;5008008;28;20061;-79
2022/03/22 02:41:24;;;;;;;17.13;7.57;;;;;;;2.68;62.84;101715.81;5008173;28;20540;-80
2022/03/22 02:43:51;;;;;;;17.17;7.83;;;;;;;3.00;63.36;101775.53;5008034;28;20057;-80
2022/03/22 02:46:16;;;;;;;13.10;7.57;;;;;;;2.75;63.31;101733.44;5007915;28;20029;-80
2022/03/22 02:48:42;;;;;;;14.10;7.93;;;;;;;3.10;62.57;101769.59;5007580;28;20038;-79
2022/03/22 02:51:08;;;;;;;12.53;8.30;;;;;;;3.12;62.12;101760.41;4991451;28;20056;-79
2022/03/22 02:53:34;;;;;;;12.87;7.37;;;;;;;3.09;61.73;101763.59;4988274;28;20074;-83
2022/03/22 02:55:59;;;;;;;18.33;8.23;;;;;;;2.68;62.22;101690.31;4989878;28;20134;-77
2022/03/22 02:58:25;;;;;;;18.50;8.03;;;;;;;3.02;62.98;101756.16;5007875;28;20046;-81
2022/03/22 03:00:51;;;;;;;16.97;7.40;;;;;;;2.81;62.16;101716.91;4991323;28;20041;-78
2022/03/22 03:03:20;;;;;;;16.77;8.13;;;;;;;2.73;62.63;101734.06;5007308;28;20158;-78
2022/03/22 03:05:46;;;;;;;14.60;7.53;;;;;;;2.55;63.30;101734.19;4993909;28;20061;-76
2022/03/22 03:08:11;;;;;;;15.30;7.80;;;;;;;2.52;62.51;101756.00;5011261;28;20412;-86
2022/03/22 03:10:36;;;;;;;13.40;7.43;;;;;;;2.50;62.52;101757.50;4991122;28;20521;-85
2022/03/22 03:13:04;;;;;;;15.80;8.03;;;;;;;2.25;63.20;101734.88;4975020;28;20038;-86
2022/03/22 03:15:30;;;;;;;13.00;7.43;;;;;;;2.14;64.10;101743.22;4974839;28;20036;-83
2022/03/22 03:17:56;;;;;;;12.23;6.70;;;;;;;2.20;64.55;101754.84;4974403;28;20034;-80
2022/03/22 03:20:21;;;;;;;14.97;8.27;;;;;;;2.24;64.58;101748.38;4974746;28;20046;-79
2022/03/22 03:22:47;;;;;;;14.30;7.97;;;;;;;2.20;65.23;101747.19;5002333;28;20062;-81
2022/03/22 03:25:13;;;;;;;14.23;7.80;;;;;;;2.05;66.04;101721.22;4996763;28;20050;-81
2022/03/22 03:27:39;;;;;;;15.73;7.60;;;;;;;2.17;65.54;101724.00;4990969;28;20034;-80
2022/03/22 03:30:06;;;;;;;16.60;8.20;;;;;;;2.46;65.36;101750.34;4990802;28;20039;-79
2022/03/22 03:32:32;;;;;;;15.57;7.80;;;;;;;2.28;65.91;101742.84;4974372;28;20112;-76
2022/03/22 03:34:57;;;;;;;13.60;7.33;;;;;;;2.33;66.29;101745.78;4990577;28;20114;-77
2022/03/22 03:37:24;;;;;;;13.17;6.87;;;;;;;1.70;67.48;101680.69;4991138;28;20038;-75
2022/03/22 03:39:50;;;;;;;11.90;7.20;;;;;;;1.83;67.03;101730.22;4990815;28;20041;-77
2022/03/22 03:42:15;;;;;;;13.60;7.60;;;;;;;1.48;67.18;101674.38;5007687;28;20485;-76
2022/03/22 03:47:25;;;;;;;17.00;9.17;;;;;;;1.73;68.58;101738.63;5023496;28;20052;-76
2022/03/22 03:49:56;;;;;;;14.20;7.93;;;;;;;1.81;67.75;101713.88;5027121;28;20404;-75
2022/03/22 03:52:26;;;;;;;12.87;7.20;;;;;;;1.54;68.21;101701.28;5016357;28;20026;-76
2022/03/22 03:54:53;;;;;;;19.90;8.70;;;;;;;1.64;69.54;101736.13;5014428;28;20030;-76
2022/03/22 03:57:22;;;;;;;15.90;7.37;;;;;;;1.17;71.54;101733.44;5012165;28;20029;-76
2022/03/22 03:59:48;;;;;;;12.57;7.20;;;;;;;1.02;72.51;101739.63;5014484;28;20033;-76
2022/03/22 04:02:14;;;;;;;13.77;7.63;;;;;;;0.79;72.45;101725.59;5012023;28;20040;-76
2022/03/22 04:04:41;;;;;;;14.40;8.40;;;;;;;0.88;72.43;101731.56;5012320;28;20025;-76
2022/03/22 04:07:08;;;;;;;15.33;9.93;;;;;;;0.92;71.56;101725.13;5016275;28;20099;-77
2022/03/22 04:09:35;;;;;;;14.57;7.53;;;;;;;0.96;70.73;101730.66;5026887;28;20064;-77
2022/03/22 04:12:00;;;;;;;18.40;8.63;;;;;;;1.08;70.29;101737.66;5011817;28;20026;-76
2022/03/22 04:14:27;;;;;;;18.17;8.40;;;;;;;1.09;69.80;101722.53;5012490;28;20375;-78
2022/03/22 04:16:52;;;;;;;13.03;7.87;;;;;;;1.31;69.30;101729.69;5011139;28;20033;-78
2022/03/22 04:19:17;;;;;;;11.83;7.10;;;;;;;1.33;68.13;101725.63;5013117;28;20022;-78
2022/03/22 04:21:44;;;;;;;15.63;7.77;;;;;;;1.28;67.79;101717.56;5012740;28;20033;-78
2022/03/22 04:24:11;;;;;;;15.43;8.80;;;;;;;1.43;67.36;101733.38;5011378;28;20029;-79
2022/03/22 04:26:40;;;;;;;17.10;7.90;;;;;;;1.15;67.05;101658.66;5012400;28;20052;-78
2022/03/22 04:34:36;;;;;;;14.93;8.40;;;;;;;1.24;68.52;101654.41;5012508;28;20092;-77
2022/03/22 04:37:02;;;;;;;14.30;8.03;;;;;;;1.62;68.05;101714.75;5012171;28;20034;-79
2022/03/22 04:39:30;;;;;;;22.57;8.40;;;;;;;1.61;68.79;101728.22;5011191;28;20131;-77
2022/03/22 04:41:56;;;;;;;18.10;8.67;;;;;;;1.75;67.76;101720.19;5012403;28;20030;-77
2022/03/22 04:44:23;;;;;;;15.60;8.37;;;;;;;1.69;68.47;101701.81;5012301;28;20412;-78
2022/03/22 04:46:49;;;;;;;13.50;8.40;;;;;;;1.74;67.60;101707.34;5011956;28;20400;-79
2022/03/22 04:49:14;;;;;;;18.03;8.93;;;;;;;1.84;67.20;101709.09;5012235;28;20108;-80
2022/03/22 04:57:08;;;;;;;15.03;8.20;;;;;;;2.05;66.28;101697.41;5011861;28;20057;-76
2022/03/22 04:59:34;;;;;;;16.43;9.50;;;;;;;2.00;66.28;101691.91;5011634;28;20030;-78
2022/03/22 05:01:59;;;;;;;15.67;8.20;;;;;;;1.86;68.89;101689.75;5011672;28;20036;-76
2022/03/22 05:04:25;;;;;;;16.33;8.13;;;;;;;1.60;72.20;101695.88;5011591;28;20041;-77
2022/03/22 05:06:51;;;;;;;18.70;11.40;;;;;;;1.57;72.58;101703.22;5011644;28;20053;-76
2022/03/22 05:09:17;;;;;;;23.63;11.30;;;;;;;1.45;74.38;101687.72;5011360;28;20109;-85
2022/03/22 05:11:42;;;;;;;16.83;10.27;;;;;;;1.19;76.75;101688.72;5009910;28;20532;-83
2022/03/22 05:14:08;;;;;;;17.07;9.37;;;;;;;1.22;75.81;101696.66;5026755;28;20093;-77
2022/03/22 05:16:35;;;;;;;18.27;10.23;;;;;;;1.33;74.25;101684.91;5011292;28;20117;-80
2022/03/22 05:19:03;;;;;;;17.03;9.27;;;;;;;1.25;73.79;101655.34;5011632;28;20036;-77
2022/03/22 05:21:29;;;;;;;16.63;9.13;;;;;;;1.69;74.17;101695.84;5011565;28;20119;-77
2022/03/22 05:23:55;;;;;;;15.77;8.60;;;;;;;1.86;74.42;101692.31;5011563;28;20077;-77
2022/03/22 05:26:20;;;;;;;18.67;10.47;;;;;;;1.86;73.95;101656.66;5011460;28;20022;-77
2022/03/22 05:28:47;;;;;;;22.97;12.23;;;;;;;2.65;66.25;101690.03;5011329;28;20453;-76
2022/03/22 05:31:16;;;;;;;16.27;9.53;;;;;;;3.60;58.25;101676.06;5009141;28;20393;-76
2022/03/22 05:33:42;;;;;;;16.27;9.38;;;;;;;4.16;56.94;101683.19;5011399;28;20029;-80
2022/03/22 05:36:08;;;;;;;17.70;9.77;;;;;;;4.51;54.78;101654.50;5011008;28;20413;-81
2022/03/22 05:38:35;;;;;;;15.30;9.43;;;;;;;4.84;54.35;101681.88;5010141;28;20072;-82
2022/03/22 05:41:06;;;;;;;16.20;9.43;;;;;;;5.08;52.47;101673.47;5011878;28;20385;-78
2022/03/22 05:43:31;;;;;;;15.63;9.40;;;;;;;5.15;51.84;101652.69;5011570;28;20033;-78
2022/03/22 05:45:57;;;;;;;17.45;9.38;;;;;;;5.03;52.16;101637.25;5011244;28;20041;-77
2022/03/22 05:48:26;;;;;;;16.10;9.45;;;;;;;5.33;52.17;101659.25;5009626;28;20026;-77
2022/03/22 05:50:53;;;;;;;17.27;8.70;;;;;;;5.44;51.55;101665.19;5013803;28;20503;-79
2022/03/22 05:53:18;;;;;;;13.82;9.40;;;;;;;5.47;51.27;101662.88;5030036;28;20045;-78
2022/03/22 05:55:44;;;;;;;18.02;9.07;;;;;;;5.54;51.04;101664.22;5030583;28;20056;-76
2022/03/22 05:58:10;;;;;;;17.25;10.27;;;;;;;5.62;51.13;101664.78;5029241;28;20104;-76
2022/03/22 06:00:36;;;;;;;15.60;9.40;;;;;;;5.67;50.84;101676.31;5021637;28;20065;-77
2022/03/22 06:03:02;;;;;;;18.50;10.35;;;;;;;5.71;50.83;101667.16;5010195;28;20105;-78
2022/03/22 06:05:31;;;;;;;16.23;10.45;;;;;;;5.70;50.50;101657.72;5010261;28;20455;-78
2022/03/22 06:07:58;;;;;;;17.25;9.38;;;;;;;5.57;50.23;101620.91;5010430;28;20033;-77
2022/03/22 06:10:24;;;;;;;15.57;10.20;;;;;;;5.90;50.40;101677.16;5010060;28;20121;-76
2022/03/22 06:12:52;;;;;;;24.50;14.25;;;;;;;5.94;50.32;101681.72;5009923;28;20504;-79
2022/03/22 06:15:20;;;;;;;23.05;11.55;;;;;;;5.92;50.89;101663.69;5008755;28;20040;-78
2022/03/22 06:17:50;;;;;;;17.48;10.45;;;;;;;6.04;50.58;101679.09;5010435;28;20026;-77
2022/03/22 06:20:17;;;;;;;17.52;11.48;;;;;;;6.08;51.29;101686.25;5009125;28;20033;-79
2022/03/22 06:22:44;;;;;;;19.00;13.10;;;;;;;6.05;50.60;101656.94;5010335;28;20030;-78
2022/03/22 06:25:09;;;;;;;16.83;10.18;;;;;;;6.15;51.26;101672.22;5009174;28;20494;-78
2022/03/22 06:27:35;;;;;;;16.65;9.80;;;;;;;6.23;51.30;101685.59;5008640;28;20121;-77
2022/03/22 06:30:09;;;;;;;17.70;9.52;;;;;;;6.10;51.26;101658.16;5009871;28;20029;-80
2022/03/22 06:32:46;;;;;;;20.80;10.43;;;;;;;6.19;51.97;101663.09;5009488;28;20069;-79
2022/03/22 06:35:15;;;;;;;19.70;10.50;;;;;;;6.29;51.59;101660.41;5011068;28;20061;-77
2022/03/22 06:37:41;;;;;;;;;;;;;;;6.46;52.01;101683.06;5011458;28;20033;-77
2022/03/22 06:40:08;;;;;;;17.55;9.57;;;;;;;6.42;51.90;101673.34;5014105;28;20300;-78
2022/03/22 06:42:34;;;;;;;16.25;9.98;;;;;;;6.64;51.96;101678.38;5014456;28;20121;-77
2022/03/22 06:45:00;;;;;;;20.08;9.60;;;;;;;6.72;51.59;101681.50;5014371;28;20037;-75
2022/03/22 06:47:26;;;;;;;17.13;9.73;;;;;;;6.77;51.88;101669.88;5014736;28;20412;-77
2022/03/22 06:49:52;;;;;;;17.15;10.98;;;;;;;6.87;51.35;101666.31;5014666;28;20045;-74
2022/03/22 06:52:17;;;;;;;21.15;10.27;;;;;;;6.96;51.51;101668.63;5014729;28;20041;-77
2022/03/22 06:54:43;;;;;;;17.30;10.20;;;;;;;6.99;51.82;101663.72;5014436;28;20030;-76
2022/03/22 06:57:09;;;;;;;15.27;9.35;;;;;;;7.08;51.42;101666.06;5014497;28;20061;-74
2022/03/22 06:59:34;;;;;;;17.55;9.52;;;;;;;6.95;51.29;101634.38;5014318;28;20091;-76
2022/03/22 07:02:00;;;;;;;16.60;9.38;;;;;;;7.09;51.00;101644.69;5014443;28;20033;-77
2022/03/22 07:04:27;;;;;;;15.45;8.68;;;;;;;7.10;50.73;101628.50;5012080;28;20057;-76
2022/03/22 07:06:54;;;;;;;15.07;8.85;;;;;;;7.08;50.08;101612.13;5014319;28;20026;-76
2022/03/22 07:09:19;;;;;;;15.00;8.68;;;;;;;7.35;49.56;101643.06;5011341;28;20053;-76
2022/03/22 07:11:51;;;;;;;16.30;9.30;;;;;;;7.47;48.78;101654.19;5011860;28;20046;-79
2022/03/22 07:14:17;;;;;;;17.65;8.55;;;;;;;7.54;48.87;101646.09;5011635;28;20524;-78
2022/03/22 07:16:44;;;;;;;25.15;8.50;;;;;;;7.61;48.59;101638.03;5023888;28;20168;-77
2022/03/22 07:19:09;;;;;;;18.38;9.02;;;;;;;7.75;49.14;101648.31;5011591;28;20049;-76
2022/03/22 07:21:36;;;;;;;14.95;8.95;;;;;;;7.81;49.59;101647.88;5011619;28;20034;-75
2022/03/22 07:24:02;;;;;;;17.10;8.90;;;;;;;7.87;48.73;101644.00;5011821;28;20091;-74
2022/03/22 07:26:27;;;;;;;14.95;8.45;;;;;;;7.88;49.45;101627.81;5011769;28;20038;-77
2022/03/22 07:28:53;;;;;;;16.30;7.82;;;;;;;8.05;48.97;101657.22;5011535;28;20122;-76
2022/03/22 07:31:18;;;;;;;16.60;8.68;;;;;;;8.10;49.43;101644.66;5011843;28;20116;-78
2022/03/22 07:33:44;;;;;;;19.55;9.18;;;;;;;8.22;49.27;101640.34;5017082;28;20467;-78
2022/03/22 07:36:10;;;;;;;17.83;9.02;;;;;;;8.29;47.65;101614.97;5030408;28;20033;-78
2022/03/22 07:38:35;;;;;;;15.20;8.45;;;;;;;8.66;46.93;101619.94;5031277;28;20412;-75
2022/03/22 07:41:01;;;;;;;32.67;9.40;;;;;;;9.04;47.41;101618.88;5033129;28;20046;-79
2022/03/22 07:43:28;;;;;;;22.08;8.70;;;;;;;9.30;46.57;101619.59;5033729;28;20477;-79
2022/03/22 07:45:54;;;;;;;19.75;8.73;;;;;;;9.45;47.23;101609.31;5033687;28;20035;-78
2022/03/22 07:48:20;;;;;;;21.35;10.40;;;;;;;9.70;47.30;101589.31;5025258;28;20029;-78
2022/03/22 07:53:29;;;;;;;24.30;10.02;;;;;;;10.05;46.16;101592.16;5013741;28;20104;-77
2022/03/22 07:55:55;;;;;;;28.75;9.68;;;;;;;9.93;46.11;101594.03;5013603;28;20492;-77
2022/03/22 07:58:20;;;;;;;19.23;7.25;;;;;;;10.03;46.05;101588.59;5013396;28;20034;-78
2022/03/22 08:00:47;;;;;;;34.42;9.43;;;;;;;10.01;46.05;101577.31;5013723;28;20469;-75
2022/03/22 08:03:17;;;;;;;24.75;8.35;;;;;;;10.13;45.77;101580.59;4995864;28;20034;-77
2022/03/22 08:05:47;;;;;;;14.43;7.75;;;;;;;10.25;45.69;101571.75;5013414;28;20487;-75
2022/03/22 08:08:12;;;;;;;21.15;8.63;;;;;;;10.39;46.45;101580.31;5013539;28;20030;-78
2022/03/22 08:10:39;;;;;;;16.23;7.50;;;;;;;10.44;44.88;101573.69;5013542;28;20041;-75
2022/03/22 08:13:06;;;;;;;23.52;9.52;;;;;;;10.43;46.02;101534.09;5013554;28;20034;-80
2022/03/22 08:15:32;;;;;;;19.40;9.25;;;;;;;10.72;45.83;101565.78;5013375;28;20030;-74
2022/03/22 08:17:58;;;;;;;20.27;11.27;;;;;;;10.64;44.61;101523.16;5013274;28;20029;-78
2022/03/22 08:20:28;;;;;;;18.38;9.50;;;;;;;10.91;44.97;101556.44;5013051;28;20060;-77
2022/03/22 08:23:04;;;;;;;24.25;7.57;;;;;;;11.07;46.83;101538.34;5025462;28;20483;-77
2022/03/22 08:25:31;;;;;;;21.23;8.13;;;;;;;10.95;44.90;101523.09;5011161;28;20203;-78
2022/03/22 08:28:00;;;;;;;25.75;7.63;;;;;;;10.85;45.32;101541.47;5013183;28;20115;-75
2022/03/22 08:30:27;;;;;;;39.75;8.75;;;;;;;10.50;46.23;101538.81;5013145;28;20061;-77
2022/03/22 08:32:55;;;;;;;46.22;9.15;;;;;;;10.70;46.37;101543.25;5012697;28;20475;-78
2022/03/22 08:35:23;;;;;;;52.25;9.68;;;;;;;10.74;45.91;101538.34;5013071;28;20048;-78
2022/03/22 08:37:49;;;;;;;43.40;8.95;;;;;;;10.90;46.03;101526.22;5012996;28;20032;-77
2022/03/22 08:40:16;;;;;;;36.80;8.07;;;;;;;10.74;45.92;101528.00;5012548;28;20045;-75
2022/03/22 08:42:46;;;;;;;63.60;10.20;;;;;;;10.53;46.13;101514.84;5012921;28;20483;-77
2022/03/22 08:45:17;;;;;;;53.38;10.38;;;;;;;10.47;47.49;101528.28;5012774;28;20022;-76
2022/03/22 08:47:45;;;;;;;17.30;6.57;;;;;;;10.40;46.81;101528.75;5012836;28;20030;-77
2022/03/22 08:50:13;;;;;;;28.88;7.55;;;;;;;10.29;47.16;101514.34;5012787;28;20038;-77
2022/03/22 08:52:39;;;;;;;45.38;9.75;;;;;;;10.40;48.18;101520.13;5012590;28;20030;-77
2022/03/22 08:55:07;;;;;;;26.95;7.43;;;;;;;10.82;48.67;101507.75;5012613;28;20041;-75
2022/03/22 08:57:36;;;;;;;44.97;8.52;;;;;;;11.11;46.90;101517.00;5026382;28;20121;-78
2022/03/22 09:00:06;;;;;;;22.67;5.97;;;;;;;10.93;46.77;101474.69;5032305;28;20102;-77
2022/03/22 09:02:32;;;;;;;18.20;6.72;;;;;;;11.26;48.46;101500.50;5029028;28;20346;-77
2022/03/22 09:07:42;;;;;;;53.38;10.40;;;;;;;11.61;47.76;101507.47;5031713;28;20099;-76
2022/03/22 09:10:08;;;;;;;157.40;13.98;;;;;;;11.63;46.40;101499.78;5032226;28;20029;-75
2022/03/22 09:12:34;;;;;;;17.08;7.18;;;;;;;11.88;45.56;101490.63;5032036;28;20446;-76
2022/03/22 09:15:01;;;;;;;44.42;9.27;;;;;;;11.80;45.66;101472.13;5031545;28;20030;-76
2022/03/22 09:17:27;;;;;;;16.80;5.60;;;;;;;11.88;44.97;101506.16;5031941;28;20076;-76
2022/03/22 09:19:52;;;;;;;15.80;7.18;;;;;;;12.06;45.32;101490.63;5031878;28;20469;-76
2022/03/22 09:22:18;;;;;;;13.90;7.18;;;;;;;12.13;45.09;101472.00;5031888;28;20446;-76
2022/03/22 09:24:43;;;;;;;25.90;6.95;;;;;;;12.43;43.59;101495.81;5031898;28;20083;-76
2022/03/22 09:27:09;;;;;;;12.10;5.40;;;;;;;12.34;42.50;101486.75;5030053;28;20030;-75
2022/03/22 09:29:34;;;;;;;60.22;8.32;;;;;;;12.14;42.44;101442.69;5022125;28;20041;-75
2022/03/22 09:31:59;;;;;;;12.27;6.20;;;;;;;12.25;44.57;101466.47;5024683;28;20033;-75
2022/03/22 09:34:25;;;;;;;24.42;6.32;;;;;;;12.21;43.60;101468.06;5031537;28;20021;-76
2022/03/22 09:36:52;;;;;;;22.00;6.43;;;;;;;12.28;43.95;101479.56;5031752;28;20033;-76
2022/03/22 09:39:19;;;;;;;12.98;6.20;;;;;;;12.44;43.11;101469.09;5024557;28;20048;-76
2022/03/22 09:41:47;;;;;;;22.70;6.95;;;;;;;11.47;42.88;101361.94;5029677;28;20033;-76
2022/03/22 09:44:17;;;;;;;15.10;6.47;;;;;;;11.95;43.19;101471.97;5031453;28;20029;-76
2022/03/22 09:46:46;;;;;;;19.80;6.07;;;;;;;12.03;43.04;101451.69;5031388;28;20151;-75
2022/03/22 09:49:12;;;;;;;27.50;6.40;;;;;;;12.25;42.25;101464.78;5028962;28;20025;-75
2022/03/22 09:51:48;;;;;;;17.08;6.28;;;;;;;12.06;41.26;101429.41;5011763;28;20091;-76
2022/03/22 09:54:16;;;;;;;14.93;6.32;;;;;;;12.01;41.61;101436.06;5011732;28;20069;-76
2022/03/22 09:56:43;;;;;;;14.48;5.90;;;;;;;12.16;41.75;101463.47;5011291;28;20054;-75
2022/03/22 09:59:09;;;;;;;13.00;5.25;;;;;;;12.29;41.46;101461.53;5011724;28;20030;-75
2022/03/22 10:01:37;;;;;;;14.57;5.85;;;;;;;12.34;40.52;101447.91;5011619;28;20038;-76
2022/03/22 10:04:07;;;;;;;11.15;5.57;;;;;;;12.35;41.07;101410.81;5011575;28;20034;-75
2022/03/22 10:06:33;;;;;;;13.63;5.70;;;;;;;12.56;41.07;101422.16;5011433;28;20116;-76
2022/03/22 10:08:59;;;;;;;15.63;6.85;;;;;;;12.89;41.16;101432.19;5011412;28;20034;-75
2022/03/22 10:11:40;;;;;;;15.55;7.13;;;;;;;13.02;40.87;101418.06;5011295;28;20538;-76
2022/03/22 10:14:10;;;;;;;30.08;6.75;;;;;;;13.10;39.91;101431.34;5011104;28;20021;-76
2022/03/22 10:16:51;;;;;;;13.63;6.00;;;;;;;12.48;40.45;101433.00;5015202;28;20033;-76
2022/03/22 10:19:22;;;;;;;112.75;15.25;;;;;;;12.38;41.71;101417.03;5030933;28;20055;-75
2022/03/22 10:21:48;;;;;;;15.55;6.25;;;;;;;12.70;40.42;101402.03;5031000;28;20028;-75
2022/03/22 10:24:17;;;;;;;80.65;12.35;;;;;;;12.64;41.13;101383.63;5031038;28;20031;-76
2022/03/22 10:26:44;;;;;;;41.83;9.63;;;;;;;12.33;40.09;101415.06;5031052;28;20032;-75
2022/03/22 10:29:12;;;;;;;13.43;5.32;;;;;;;12.45;40.98;101418.22;5026359;28;20400;-75
2022/03/22 10:31:39;;;;;;;16.80;6.50;;;;;;;12.40;40.47;101412.81;5013719;28;20044;-76
2022/03/22 10:34:09;;;;;;;16.83;6.72;;;;;;;12.12;41.47;101371.84;5023824;28;20029;-76
2022/03/22 10:36:36;;;;;;;11.90;7.13;;;;;;;12.59;41.93;101409.31;5030650;28;20103;-76
2022/03/22 10:39:12;;;;;;;25.45;8.32;;;;;;;12.90;41.85;101391.63;5030782;28;20068;-76
2022/03/22 10:41:40;;;;;;;12.75;6.55;;;;;;;12.83;40.60;101385.28;5030474;28;20044;-76
2022/03/22 10:44:08;;;;;;;15.50;6.82;;;;;;;12.61;39.46;101388.66;5030578;28;20029;-76
2022/03/22 10:46:37;;;;;;;15.93;6.65;;;;;;;12.82;40.39;101380.06;5030526;28;20021;-76
2022/03/22 10:49:11;;;;;;;14.77;7.00;;;;;;;12.78;39.77;101348.84;5030766;28;20033;-76
2022/03/22 10:51:47;;;;;;;16.40;6.82;;;;;;;13.04;40.62;101309.25;5030370;28;20128;-76
2022/03/22 10:54:17;;;;;;;14.55;6.47;;;;;;;13.18;39.33;101367.72;5030453;28;20068;-76
2022/03/22 10:56:47;;;;;;;28.83;8.35;;;;;;;13.05;39.64;101349.91;5030554;28;20056;-76
2022/03/22 10:59:15;;;;;;;19.48;7.45;;;;;;;13.40;38.51;101347.88;5030421;28;20026;-77
2022/03/22 11:01:45;;;;;;;22.65;7.47;;;;;;;13.01;38.46;101329.84;5030568;28;20499;-76
2022/03/22 11:04:12;;;;;;;15.82;6.97;;;;;;;12.98;39.42;101350.47;5030508;28;20034;-76
2022/03/22 11:06:39;;;;;;;11.07;5.93;;;;;;;12.83;39.09;101328.28;5021237;28;20396;-76
2022/03/22 11:09:05;;;;;;;12.00;5.85;;;;;;;12.92;39.18;101330.38;5010541;28;20515;-75
2022/03/22 11:11:32;;;;;;;11.88;7.07;;;;;;;12.85;41.53;101295.53;5010771;28;20061;-76
2022/03/22 11:13:58;;;;;;;84.75;11.25;;;;;;;13.33;38.11;101314.72;5010319;28;20030;-76
2022/03/22 11:16:30;;;;;;;13.25;7.50;;;;;;;13.40;39.21;101311.56;5010608;28;20485;-76
2022/03/22 11:18:59;;;;;;;13.52;6.00;;;;;;;13.44;39.24;101321.22;5010720;28;20030;-76
2022/03/22 11:21:25;;;;;;;11.63;5.82;;;;;;;13.63;40.14;101272.66;5010619;28;20041;-75
2022/03/22 11:23:52;;;;;;;18.50;6.05;;;;;;;14.16;38.01;101301.41;5015607;28;20036;-76
2022/03/22 11:26:23;;;;;;;15.85;6.22;;;;;;;14.08;36.52;101282.94;5031842;28;20060;-76
2022/03/22 11:28:49;;;;;;;17.38;8.65;;;;;;;14.48;37.33;101288.63;5033932;28;20075;-77
2022/03/22 11:31:18;;;;;;;28.42;8.93;;;;;;;14.56;37.26;101240.41;5023919;28;20519;-77
2022/03/22 11:36:53;;;;;;;12.68;6.53;;;;;;;14.93;37.41;101271.94;5013987;28;20040;-78
2022/03/22 11:42:15;;;;;;;21.20;7.10;;;;;;;14.35;35.15;101285.59;5013503;28;20420;-78
2022/03/22 11:42:24;;;;;;;15.55;5.63;;;;;;;14.04;35.90;101275.88;5013748;28;20120;-76
2022/03/22 11:45:11;;;;;;;18.30;7.10;;;;;;;13.85;36.14;101254.44;5011415;28;20042;-77
2022/03/22 11:47:42;;;;;;;14.15;6.32;;;;;;;14.05;37.15;101251.69;5011185;28;20046;-77
2022/03/22 11:50:09;;;;;;;16.08;6.63;;;;;;;13.88;36.81;101249.38;5013734;28;20152;-77